createdAt,value
2023-04-25T00:01:35.422Z,100862.75
2023-04-25T00:06:37.925Z,100885.00
2023-04-25T00:11:42.195Z,100868.22
2023-04-25T00:16:45.292Z,100840.53
2023-04-25T00:21:47.949Z,100871.88
2023-04-25T00:26:50.469Z,100842.38
2023-04-25T00:31:53.726Z,100824.41
2023-04-25T00:36:56.336Z,100820.94
2023-04-25T00:41:59.771Z,100841.53
2023-04-25T00:47:05.196Z,100818.75
2023-04-25T00:52:08.544Z,100833.06
2023-04-25T00:57:11.891Z,100814.78
2023-04-25T01:02:14.893Z,100823.09
2023-04-25T01:07:17.611Z,100838.97
2023-04-25T01:12:20.259Z,100803.53
2023-04-25T01:17:23.682Z,100797.81
2023-04-25T01:22:27.621Z,100733.19
2023-04-25T01:27:31.323Z,100773.97
2023-04-25T01:32:39.671Z,100743.34
2023-04-25T01:37:44.254Z,100705.03
2023-04-25T01:42:48.815Z,100766.63
2023-04-25T01:47:51.634Z,100754.84
2023-04-25T01:52:56.125Z,100763.25
2023-04-25T01:57:58.683Z,100711.91
2023-04-25T02:03:14.447Z,100747.59
2023-04-25T02:08:18.662Z,100756.06
2023-04-25T02:13:21.716Z,100772.84
2023-04-25T02:18:42.052Z,100763.81
2023-04-25T02:23:47.407Z,100722.38
2023-04-25T02:28:51.936Z,100759.56
2023-04-25T02:33:56.377Z,100760.66
2023-04-25T02:38:58.830Z,100725.41
2023-04-25T02:44:02.012Z,100724.63
2023-04-25T02:49:05.087Z,100660.25
2023-04-25T02:54:07.989Z,100718.53
2023-04-25T02:59:16.012Z,100689.72
2023-04-25T03:04:20.261Z,100720.28
2023-04-25T03:09:23.285Z,100718.88
2023-04-25T03:14:27.561Z,100707.22
2023-04-25T03:19:31.762Z,100726.63
2023-04-25T03:24:34.648Z,100721.53
2023-04-25T03:29:37.078Z,100696.22
2023-04-25T03:34:41.215Z,100751.72
2023-04-25T03:39:43.968Z,100747.78
2023-04-25T03:44:47.617Z,100749.28
2023-04-25T03:49:52.922Z,100734.13
2023-04-25T03:54:59.039Z,100732.28
2023-04-25T04:00:01.876Z,100775.06
2023-04-25T04:05:16.661Z,100761.72
2023-04-25T04:10:27.618Z,100692.91
2023-04-25T04:15:34.121Z,100716.19
2023-04-25T04:20:37.609Z,100755.06
2023-04-25T04:25:43.020Z,100753.91
2023-04-25T04:31:21.205Z,100699.19
2023-04-25T04:36:24.266Z,100740.63
2023-04-25T04:41:28.032Z,100755.44
2023-04-25T04:46:46.289Z,100741.78
2023-04-25T04:52:08.763Z,100718.63
2023-04-25T04:57:31.086Z,100715.63
2023-04-25T05:02:54.439Z,100730.50
2023-04-25T05:08:15.649Z,100754.25
2023-04-25T05:13:40.761Z,100752.19
2023-04-25T05:19:02.002Z,100740.75
2023-04-25T05:24:23.810Z,100748.16
2023-04-25T05:30:06.877Z,100753.72
2023-04-25T05:35:25.784Z,100738.53
2023-04-25T05:40:43.344Z,100728.47
2023-04-25T05:45:56.470Z,100707.50
2023-04-25T05:51:21.375Z,100758.91
2023-04-25T05:56:45.261Z,100775.13
2023-04-25T06:01:48.487Z,100686.66
2023-04-25T06:06:51.382Z,100775.81
2023-04-25T06:11:55.222Z,100764.66
2023-04-25T06:16:58.897Z,100731.06
2023-04-25T06:22:03.754Z,100781.69
2023-04-25T06:27:08.299Z,100751.53
2023-04-25T06:32:11.289Z,100757.91
2023-04-25T06:37:14.405Z,100778.72
2023-04-25T06:42:19.347Z,100763.22
2023-04-25T06:47:29.810Z,100721.66
2023-04-25T06:52:34.106Z,100791.69
2023-04-25T06:57:40.856Z,100796.00
2023-04-25T07:03:03.909Z,100751.72
2023-04-25T07:08:07.367Z,100731.56
2023-04-25T07:13:11.939Z,100720.34
2023-04-25T07:18:15.554Z,100752.19
2023-04-25T07:23:25.469Z,100783.78
2023-04-25T07:28:30.386Z,100716.34
2023-04-25T07:33:34.913Z,100769.00
2023-04-25T07:38:38.843Z,100774.13
2023-04-25T07:43:44.847Z,100778.16
2023-04-25T07:48:48.036Z,100777.59
2023-04-25T07:53:52.840Z,100717.63
2023-04-25T07:58:58.163Z,100780.78
2023-04-25T08:04:01.412Z,100763.06
2023-04-25T08:09:35.135Z,100764.22
2023-04-25T08:14:41.614Z,100782.25
2023-04-25T08:19:46.392Z,100759.41
2023-04-25T08:24:58.576Z,100752.66
2023-04-25T08:30:04.577Z,100768.53
2023-04-25T08:35:08.726Z,100787.03
2023-04-25T08:40:15.383Z,100799.66
2023-04-25T08:45:43.233Z,100799.63
2023-04-25T08:50:56.581Z,100768.22
2023-04-25T08:56:07.088Z,100798.31
2023-04-25T09:01:12.396Z,100766.34
2023-04-25T09:06:24.946Z,100780.34
2023-04-25T09:11:28.565Z,100727.16
2023-04-25T09:16:33.743Z,100717.78
2023-04-25T09:22:05.048Z,100737.06
2023-04-25T09:27:14.678Z,100751.84
2023-04-25T09:32:23.754Z,100775.75
2023-04-25T09:37:32.221Z,100776.81
2023-04-25T09:42:53.774Z,100804.16
2023-04-25T09:47:59.229Z,100797.47
2023-04-25T09:53:08.832Z,100786.19
2023-04-25T09:58:34.274Z,100774.28
2023-04-25T10:03:41.376Z,100807.03
2023-04-25T10:09:05.009Z,100789.31
2023-04-25T10:14:08.474Z,100787.97
2023-04-25T10:19:14.863Z,100776.88
2023-04-25T10:24:18.351Z,100796.88
2023-04-25T10:29:25.891Z,100795.75
2023-04-25T10:34:42.609Z,100804.31
2023-04-25T10:39:48.035Z,100808.06
2023-04-25T10:45:04.722Z,100812.06
2023-04-25T10:50:12.633Z,100820.44
2023-04-25T10:55:15.841Z,100825.31
2023-04-25T11:00:20.847Z,100817.44
2023-04-25T11:05:51.157Z,100795.41
2023-04-25T11:10:58.313Z,100797.31
2023-04-25T11:16:07.618Z,100817.97
2023-04-25T11:21:17.386Z,100802.16
2023-04-25T11:26:21.710Z,100807.97
2023-04-25T11:31:26.250Z,100805.75
2023-04-25T11:36:41.045Z,100805.03
2023-04-25T11:41:45.972Z,100800.47
2023-04-25T11:47:25.144Z,100799.97
2023-04-25T11:52:45.503Z,100801.06
2023-04-25T11:57:54.912Z,100800.03
2023-04-25T12:03:01.403Z,100781.03
2023-04-25T12:08:13.022Z,100804.69
2023-04-25T12:13:27.090Z,100791.00
2023-04-25T12:18:30.055Z,100796.63
2023-04-25T12:23:33.335Z,100811.91
2023-04-25T12:28:39.540Z,100727.34
2023-04-25T12:39:05.557Z,100796.34
2023-04-25T12:44:08.526Z,100839.66
2023-04-25T12:54:20.455Z,100858.22
2023-04-25T12:59:25.117Z,100849.41
2023-04-25T13:04:31.524Z,100859.56
2023-04-25T13:09:34.667Z,100844.22
2023-04-25T13:14:37.496Z,100843.16
2023-04-25T13:19:40.924Z,100848.53
2023-04-25T13:24:44.231Z,100837.00
2023-04-25T13:29:47.333Z,100839.16
2023-04-25T13:34:50.456Z,100847.53
2023-04-25T13:39:54.275Z,100840.53
2023-04-25T13:44:56.738Z,100842.69
2023-04-25T13:50:00.048Z,100841.88
2023-04-25T13:55:05.035Z,100839.47
2023-04-25T14:00:10.591Z,100819.84
2023-04-25T14:05:16.742Z,100729.84
2023-04-25T14:10:21.409Z,100784.63
2023-04-25T14:15:23.882Z,100800.72
2023-04-25T14:20:30.285Z,100838.66
2023-04-25T14:25:36.691Z,100843.75
2023-04-25T14:30:43.534Z,100757.78
2023-04-25T14:35:56.726Z,100730.63
2023-04-25T14:41:01.218Z,100781.13
2023-04-25T14:46:07.833Z,100766.06
2023-04-25T14:51:11.695Z,100823.28
2023-04-25T14:56:14.471Z,100761.44
2023-04-25T15:01:18.621Z,100762.94
2023-04-25T15:06:21.891Z,100814.50
2023-04-25T15:11:25.798Z,100764.47
2023-04-25T15:16:30.025Z,100808.72
2023-04-25T15:21:33.103Z,100821.59
2023-04-25T15:26:36.750Z,100775.75
2023-04-25T15:31:39.705Z,100832.47
2023-04-25T15:36:42.649Z,100858.72
2023-04-25T15:41:45.865Z,100835.97
2023-04-25T15:46:48.356Z,100844.94
2023-04-25T15:51:51.894Z,100785.91
2023-04-25T15:56:54.173Z,100879.00
2023-04-25T16:01:57.646Z,100791.84
2023-04-25T16:07:00.269Z,100851.09
2023-04-25T16:12:02.975Z,100868.06
2023-04-25T16:17:05.734Z,100848.50
2023-04-25T16:22:09.983Z,100908.88
2023-04-25T16:27:12.489Z,100912.50
2023-04-25T16:32:15.076Z,100888.03
2023-04-25T16:37:17.486Z,100906.38
2023-04-25T16:42:21.841Z,100939.25
2023-04-25T16:47:25.866Z,100927.19
2023-04-25T16:52:31.912Z,100948.03
2023-04-25T16:57:39.669Z,100903.66
2023-04-25T17:02:47.368Z,100940.06
2023-04-25T17:07:50.644Z,100949.28
2023-04-25T17:12:53.111Z,100908.38
2023-04-25T17:17:57.012Z,100913.28
2023-04-25T17:23:00.900Z,100902.53
2023-04-25T17:28:03.576Z,100957.56
2023-04-25T17:33:07.361Z,100919.50
2023-04-25T17:38:10.437Z,100975.09
2023-04-25T17:43:12.965Z,100863.03
2023-04-25T17:48:15.826Z,100955.47
2023-04-25T17:53:18.765Z,100983.63
2023-04-25T17:58:21.804Z,100954.19
2023-04-25T18:03:24.592Z,100960.47
2023-04-25T18:08:27.329Z,100845.06
2023-04-25T18:13:30.287Z,100875.97
2023-04-25T18:18:34.874Z,100973.34
2023-04-25T18:23:38.979Z,100901.91
2023-04-25T18:28:41.895Z,100956.13
2023-04-25T18:33:44.799Z,100946.72
2023-04-25T18:38:51.132Z,100865.88
2023-04-25T18:43:56.265Z,100985.78
2023-04-25T18:48:59.003Z,100875.22
2023-04-25T18:54:02.459Z,100915.22
2023-04-25T18:59:05.938Z,100877.06
2023-04-25T19:04:09.974Z,100955.19
2023-04-25T19:09:13.663Z,100948.31
2023-04-25T19:14:16.397Z,100906.78
2023-04-25T19:19:18.959Z,100936.59
2023-04-25T19:24:21.859Z,100895.78
2023-04-25T19:29:24.378Z,100901.81
2023-04-25T19:34:27.382Z,100884.41
2023-04-25T19:39:30.160Z,100915.13
2023-04-25T19:44:32.905Z,100973.88
2023-04-25T19:49:35.470Z,100973.66
2023-04-25T19:54:38.408Z,100974.53
2023-04-25T19:59:41.593Z,100881.03
2023-04-25T20:04:44.246Z,100884.84
2023-04-25T20:09:46.964Z,100917.66
2023-04-25T20:14:50.002Z,100990.91
2023-04-25T20:19:53.206Z,100932.22
2023-04-25T20:24:56.331Z,100880.63
2023-04-25T20:30:03.285Z,100910.56
2023-04-25T20:35:10.162Z,101000.03
2023-04-25T20:40:13.606Z,100980.03
2023-04-25T20:45:18.385Z,100997.28
2023-04-25T20:50:22.244Z,100906.06
2023-04-25T20:55:25.433Z,100979.91
2023-04-25T21:00:29.539Z,100968.06
2023-04-25T21:05:32.668Z,100921.47
2023-04-25T21:10:37.315Z,100894.28
2023-04-25T21:15:40.873Z,100914.81
2023-04-25T21:20:44.122Z,100895.88
2023-04-25T21:25:51.350Z,100933.53
2023-04-25T21:30:55.805Z,100930.09
2023-04-25T21:35:58.326Z,100922.63
2023-04-25T21:41:01.910Z,100877.34
2023-04-25T21:51:12.428Z,100846.06
2023-04-25T21:56:14.939Z,100975.09
2023-04-25T22:01:18.420Z,100992.50
2023-04-25T22:06:22.376Z,100939.78
2023-04-25T22:11:24.790Z,100986.63
2023-04-25T22:16:30.023Z,100931.00
2023-04-25T22:21:33.212Z,100980.78
2023-04-25T22:26:37.655Z,100944.25
2023-04-25T22:31:41.392Z,100884.06
2023-04-25T22:36:44.207Z,100910.53
2023-04-25T22:41:48.711Z,100868.28
2023-04-25T22:46:51.810Z,100869.31
2023-04-25T22:51:55.842Z,100908.34
2023-04-25T22:57:00.097Z,100922.47
2023-04-25T23:02:03.167Z,100987.19
2023-04-25T23:07:05.785Z,100921.34
2023-04-25T23:12:08.335Z,100970.59
2023-04-25T23:17:11.837Z,100881.59
2023-04-25T23:22:14.579Z,101005.78
2023-04-25T23:27:18.594Z,100950.81
2023-04-25T23:32:22.570Z,100899.34
2023-04-25T23:37:25.110Z,101011.69
2023-04-25T23:42:27.846Z,100907.00
2023-04-25T23:47:31.084Z,101011.22
2023-04-25T23:52:33.704Z,100933.97
2023-04-25T23:57:37.715Z,100879.88
